Time;durP1;ratioP1;P1;durP2;ratioP2;P2;SDS_P1;SDS_P2;PMS_P1;PMS_P2;Temp;Humidity;BMP_temperature;BMP_pressure;BME280_temperature;BME280_humidity;BME280_pressure;Samples;Min_cycle;Max_cycle;Signal;HPM_P1;HPM_P2
2021/11/17 02:27:25;;;;;;;5.30;2.00;;;;;;;6.59;100.00;101144.13;5013167;28;20100;-68
2021/11/17 02:30:30;;;;;;;4.93;1.52;;;;;;;6.58;100.00;101126.50;4989893;28;20740;-68
2021/11/17 02:33:09;;;;;;;6.88;2.15;;;;;;;6.67;100.00;101134.53;4993034;28;20045;-68
2021/11/17 02:35:38;;;;;;;7.72;2.67;;;;;;;6.70;100.00;101134.66;5011826;28;20034;-66
2021/11/17 02:38:22;;;;;;;4.15;1.90;;;;;;;6.68;100.00;101128.84;4999453;28;20042;-67
2021/11/17 02:41:27;;;;;;;3.50;1.90;;;;;;;6.67;100.00;101129.97;4998481;28;20041;-67
2021/11/17 02:44:15;;;;;;;8.05;2.38;;;;;;;6.69;100.00;101129.63;4975617;28;20049;-67
2021/11/17 02:47:05;;;;;;;7.07;2.33;;;;;;;6.61;100.00;101125.88;4998930;28;20040;-67
2021/11/17 02:49:33;;;;;;;6.22;2.30;;;;;;;6.65;100.00;101124.13;4976366;28;20413;-68
2021/11/17 02:52:14;;;;;;;5.32;2.03;;;;;;;6.59;100.00;101124.59;5001021;28;20041;-68
2021/11/17 02:54:46;;;;;;;8.93;2.50;;;;;;;6.66;100.00;101112.31;4974587;28;20059;-68
2021/11/17 02:57:11;;;;;;;;;;;;;;;6.55;100.00;101115.63;5000169;28;20049;-67
2021/11/17 03:00:04;;;;;;;7.07;2.58;;;;;;;6.60;100.00;101100.19;4996888;28;19917;-67
2021/11/17 03:02:48;;;;;;;3.95;2.38;;;;;;;6.56;100.00;101111.88;5006357;28;20563;-67
2021/11/17 03:05:35;;;;;;;6.22;2.17;;;;;;;6.54;100.00;101112.19;4988980;28;20113;-67
2021/11/17 03:08:16;;;;;;;9.77;3.20;;;;;;;6.59;100.00;101104.00;4991620;28;20153;-67
2021/11/17 03:11:03;;;;;;;6.40;2.53;;;;;;;6.64;100.00;101095.78;5001471;28;20132;-68
2021/11/17 03:13:41;;;;;;;5.93;1.95;;;;;;;6.70;100.00;101099.88;5007922;28;20045;-66
2021/11/17 03:16:13;;;;;;;12.82;2.50;;;;;;;6.61;100.00;101096.44;4989741;28;20561;-69
2021/11/17 03:18:51;;;;;;;6.10;3.05;;;;;;;6.62;100.00;101087.28;5000699;28;20129;-69
2021/11/17 03:21:43;;;;;;;6.28;2.97;;;;;;;6.57;100.00;101089.34;4998027;28;20038;-68
2021/11/17 03:24:24;;;;;;;5.90;2.55;;;;;;;6.65;100.00;101085.88;4999321;28;20044;-67
2021/11/17 03:27:06;;;;;;;6.57;2.28;;;;;;;6.65;100.00;101088.56;5001892;28;20120;-69
2021/11/17 03:29:49;;;;;;;6.20;2.60;;;;;;;6.60;100.00;101086.81;5008498;28;20484;-67
2021/11/17 03:32:43;;;;;;;7.65;2.95;;;;;;;6.58;100.00;101080.25;4976662;28;20038;-67
2021/11/17 03:35:49;;;;;;;4.55;2.17;;;;;;;6.64;100.00;101085.09;5005636;28;20124;-68
2021/11/17 03:38:27;;;;;;;6.45;3.00;;;;;;;6.66;100.00;101077.53;4997335;28;20087;-69
2021/11/17 03:40:58;;;;;;;8.73;2.72;;;;;;;6.65;100.00;101084.00;5004638;28;20089;-68
2021/11/17 03:43:36;;;;;;;5.68;1.80;;;;;;;6.64;100.00;101074.38;4984654;28;20026;-68
2021/11/17 03:46:20;;;;;;;5.10;2.17;;;;;;;6.63;100.00;101080.06;4991844;28;20065;-69
2021/11/17 03:49:29;;;;;;;6.78;2.35;;;;;;;6.67;100.00;101081.00;4990316;28;20053;-68
2021/11/17 03:52:22;;;;;;;6.80;2.28;;;;;;;6.81;100.00;101078.94;4971414;28;20047;-69
2021/11/17 03:55:09;;;;;;;6.38;2.67;;;;;;;6.76;100.00;101076.41;5001137;28;20042;-67
2021/11/17 03:58:12;;;;;;;7.38;2.22;;;;;;;6.71;100.00;101082.75;4984089;28;20405;-68
2021/11/17 04:01:09;;;;;;;9.00;2.85;;;;;;;6.69;100.00;101084.16;4991333;28;20046;-68
2021/11/17 04:03:52;;;;;;;3.67;2.20;;;;;;;6.72;100.00;101086.97;4996504;28;20520;-68
2021/11/17 04:06:21;;;;;;;11.85;2.72;;;;;;;6.70;100.00;101078.47;4981159;28;20073;-69
2021/11/17 04:09:14;;;;;;;7.53;1.90;;;;;;;6.74;100.00;101084.75;4984961;28;20045;-68
2021/11/17 04:11:40;;;;;;;6.25;2.55;;;;;;;6.69;100.00;101076.13;4990741;28;20448;-67
2021/11/17 04:14:17;;;;;;;6.93;2.60;;;;;;;6.71;100.00;101080.06;5004099;28;20036;-68
2021/11/17 04:16:55;;;;;;;6.75;2.47;;;;;;;6.63;100.00;101080.06;4994536;28;20068;-66
2021/11/17 04:19:29;;;;;;;9.48;2.60;;;;;;;6.68;100.00;101069.97;4989535;28;20038;-67
2021/11/17 04:22:45;;;;;;;7.03;2.28;;;;;;;6.66;100.00;101076.78;4987659;28;20073;-67
2021/11/17 04:25:29;;;;;;;5.20;2.30;;;;;;;6.62;100.00;101071.25;4973964;28;20125;-67
2021/11/17 04:28:15;;;;;;;9.75;2.30;;;;;;;6.66;100.00;101076.78;4985997;28;20030;-68
2021/11/17 04:30:50;;;;;;;11.07;3.97;;;;;;;6.78;100.00;101072.31;4994934;28;20562;-67
2021/11/17 04:33:23;;;;;;;6.40;2.15;;;;;;;6.75;100.00;101070.28;4989179;28;20030;-68
2021/11/17 04:36:00;;;;;;;9.15;2.92;;;;;;;6.73;100.00;101080.53;4985470;28;20845;-67
2021/11/17 04:38:35;;;;;;;4.95;2.85;;;;;;;6.71;100.00;101074.72;4984347;28;20034;-69
2021/11/17 04:41:00;;;;;;;6.47;2.15;;;;;;;6.71;100.00;101064.00;4989874;28;20096;-67
2021/11/17 04:43:35;;;;;;;4.47;2.40;;;;;;;6.65;100.00;101070.63;4991248;28;20038;-68
2021/11/17 04:46:22;;;;;;;4.05;2.30;;;;;;;6.69;100.00;101060.06;4987284;28;20510;-67
2021/11/17 04:49:06;;;;;;;7.60;2.45;;;;;;;6.68;100.00;101069.97;4991371;28;20030;-67
2021/11/17 04:51:31;;;;;;;7.60;2.25;;;;;;;6.67;100.00;101068.41;4978582;28;20130;-67
2021/11/17 04:54:24;;;;;;;5.88;2.53;;;;;;;6.68;100.00;101069.22;4987990;28;20148;-67
2021/11/17 04:56:50;;;;;;;9.43;2.03;;;;;;;6.72;100.00;101054.84;4991321;28;20038;-67
2021/11/17 04:59:25;;;;;;;7.03;2.85;;;;;;;6.69;100.00;101063.53;4987882;28;20045;-67
2021/11/17 05:01:50;;;;;;;5.93;2.30;;;;;;;6.60;100.00;101061.97;4990065;28;20042;-68
2021/11/17 05:04:51;;;;;;;6.63;2.85;;;;;;;6.72;100.00;101068.25;4990905;28;20030;-67
2021/11/17 05:07:29;;;;;;;6.57;2.33;;;;;;;6.74;100.00;101065.25;4990550;28;20050;-68
2021/11/17 05:10:06;;;;;;;5.70;1.90;;;;;;;6.64;100.00;101062.91;4984318;28;20519;-67
2021/11/17 05:12:53;;;;;;;8.48;3.45;;;;;;;6.71;100.00;101057.84;4989540;28;20042;-67
2021/11/17 05:15:43;;;;;;;3.50;1.52;;;;;;;6.67;100.00;101057.72;4990894;28;20122;-69
2021/11/17 05:18:24;;;;;;;5.85;2.10;;;;;;;6.63;100.00;101056.78;4981485;28;20077;-68
2021/11/17 05:21:04;;;;;;;2.95;1.67;;;;;;;6.71;100.00;101055.97;4988348;28;20049;-67
2021/11/17 05:23:33;;;;;;;6.38;2.38;;;;;;;6.73;100.00;101052.97;4981114;28;20042;-68
2021/11/17 05:26:30;;;;;;;4.80;2.30;;;;;;;6.73;100.00;101061.00;4990708;28;20044;-69
2021/11/17 05:29:03;;;;;;;9.75;1.63;;;;;;;6.72;100.00;101048.72;4982649;28;20034;-67
2021/11/17 05:31:46;;;;;;;3.88;2.05;;;;;;;6.76;100.00;101050.44;4988063;28;20041;-67
2021/11/17 05:34:24;;;;;;;3.97;1.50;;;;;;;6.72;100.00;101057.53;4990983;28;20540;-67
2021/11/17 05:37:54;;;;;;;3.55;1.73;;;;;;;6.72;100.00;101052.19;4987931;28;20104;-67
2021/11/17 05:40:26;;;;;;;3.92;1.50;;;;;;;6.69;100.00;101050.16;4967592;28;20784;-68
2021/11/17 05:43:10;;;;;;;6.53;1.35;;;;;;;6.70;100.00;101049.03;4987009;28;20081;-68
2021/11/17 05:46:12;;;;;;;5.45;1.92;;;;;;;6.70;100.00;101062.41;4968073;28;20433;-66
2021/11/17 05:48:43;;;;;;;;;;;;;;;6.74;100.00;101060.69;4983115;28;20041;-68
2021/11/17 05:51:34;;;;;;;4.95;2.03;;;;;;;6.68;100.00;101053.16;4989754;28;19979;-68
2021/11/17 05:54:08;;;;;;;7.38;2.35;;;;;;;6.74;100.00;101058.00;4991480;28;20042;-68
2021/11/17 05:56:49;;;;;;;4.68;1.92;;;;;;;6.66;100.00;101055.38;4994324;28;20499;-68
2021/11/17 05:59:33;;;;;;;4.82;1.52;;;;;;;6.71;100.00;101053.31;4992484;28;20034;-68
2021/11/17 06:02:04;;;;;;;5.03;2.72;;;;;;;6.71;100.00;101058.66;4981046;28;20038;-68
2021/11/17 06:04:30;;;;;;;4.20;1.70;;;;;;;6.75;100.00;101056.91;4993856;28;20038;-68
2021/11/17 06:06:59;;;;;;;5.10;1.88;;;;;;;6.69;100.00;101047.47;4991196;28;20034;-69
2021/11/17 06:09:24;;;;;;;5.63;2.30;;;;;;;6.79;100.00;101057.06;4992861;28;20046;-68
2021/11/17 06:12:01;;;;;;;5.35;2.58;;;;;;;6.83;100.00;101056.09;4992600;28;20122;-67
2021/11/17 06:14:33;;;;;;;5.55;1.90;;;;;;;6.74;100.00;101063.34;4992969;28;20045;-68
2021/11/17 06:17:06;;;;;;;7.97;2.10;;;;;;;6.70;100.00;101070.44;4979423;28;20038;-66
2021/11/17 06:19:40;;;;;;;8.15;2.03;;;;;;;6.78;100.00;101066.97;4987141;28;20106;-68
2021/11/17 06:22:09;;;;;;;8.45;3.40;;;;;;;6.83;100.00;101063.34;4993578;28;20038;-68
2021/11/17 06:24:36;;;;;;;5.25;1.88;;;;;;;6.78;100.00;101063.50;5009227;28;20064;-67
2021/11/17 06:27:04;;;;;;;4.20;2.05;;;;;;;6.70;100.00;101075.78;4987456;28;20030;-67
2021/11/17 06:29:34;;;;;;;7.25;3.30;;;;;;;6.79;100.00;101060.53;4992911;28;20034;-67
2021/11/17 06:32:01;;;;;;;6.13;2.10;;;;;;;6.75;100.00;101066.81;4987795;28;20045;-67
2021/11/17 06:34:48;;;;;;;11.23;2.75;;;;;;;6.80;100.00;101066.66;4993517;28;20029;-68
2021/11/17 06:37:17;;;;;;;6.75;2.08;;;;;;;6.74;100.00;101058.00;4994042;28;20042;-67
2021/11/17 06:39:46;;;;;;;11.20;3.17;;;;;;;6.75;100.00;101056.13;4993081;28;20026;-68
2021/11/17 06:42:21;;;;;;;9.38;3.00;;;;;;;6.81;100.00;101052.97;5004269;28;20092;-68
2021/11/17 06:44:47;;;;;;;8.60;2.67;;;;;;;6.74;100.00;101051.84;4993224;28;20037;-67
2021/11/17 06:47:13;;;;;;;5.95;2.47;;;;;;;6.72;100.00;101043.34;4992599;28;20520;-67
2021/11/17 06:49:39;;;;;;;9.40;2.95;;;;;;;6.74;100.00;101036.59;4993906;28;20045;-68
2021/11/17 06:52:05;;;;;;;9.15;2.80;;;;;;;6.74;100.00;101030.44;4989208;28;20062;-67
2021/11/17 06:54:31;;;;;;;10.48;3.40;;;;;;;6.78;100.00;101026.03;4991418;28;20027;-68
2021/11/17 06:56:56;;;;;;;6.72;2.78;;;;;;;6.77;100.00;101029.81;4993552;28;20057;-69
2021/11/17 06:59:22;;;;;;;8.00;2.38;;;;;;;6.77;100.00;101045.88;4993583;28;20643;-68
2021/11/17 07:01:48;;;;;;;4.95;2.88;;;;;;;6.80;100.00;101032.66;4981601;28;20159;-66
2021/11/17 07:04:13;;;;;;;6.75;2.38;;;;;;;6.84;100.00;101030.09;5003732;28;20034;-68
2021/11/17 07:06:39;;;;;;;5.15;1.98;;;;;;;6.80;100.00;101042.56;5012188;28;20100;-68
2021/11/17 07:09:07;;;;;;;7.95;2.47;;;;;;;6.82;100.00;101038.47;5012553;28;20041;-67
2021/11/17 07:11:37;;;;;;;7.70;2.85;;;;;;;6.90;100.00;101031.50;5004176;28;20033;-68
2021/11/17 07:14:12;;;;;;;6.78;2.50;;;;;;;6.83;100.00;101023.19;5007739;28;20104;-68
2021/11/17 07:16:39;;;;;;;5.65;1.85;;;;;;;6.76;100.00;101012.97;5012192;28;20073;-67
2021/11/17 07:19:09;;;;;;;7.55;2.42;;;;;;;6.78;100.00;101008.09;5002297;28;20039;-68
2021/11/17 07:21:37;;;;;;;6.35;2.78;;;;;;;6.75;100.00;101016.78;5003311;28;20022;-68
2021/11/17 07:24:04;;;;;;;7.93;2.45;;;;;;;6.70;100.00;101022.28;5011892;28;20048;-67
2021/11/17 07:26:30;;;;;;;8.02;2.60;;;;;;;6.76;100.00;101007.63;5011946;28;20038;-66
2021/11/17 07:28:55;;;;;;;5.03;2.00;;;;;;;6.79;100.00;101017.72;5002106;28;20484;-68
2021/11/17 07:31:21;;;;;;;4.75;1.92;;;;;;;6.82;100.00;101016.25;4990583;28;20455;-66
2021/11/17 07:33:48;;;;;;;8.55;2.63;;;;;;;6.79;100.00;101012.34;4987999;28;20030;-68
2021/11/17 07:36:16;;;;;;;5.50;2.17;;;;;;;6.86;100.00;101031.38;4987243;28;20542;-68
2021/11/17 07:38:43;;;;;;;9.20;2.15;;;;;;;6.78;100.00;101052.78;5002140;28;20042;-69
2021/11/17 07:41:09;;;;;;;9.18;3.00;;;;;;;6.90;100.00;101048.38;4968762;28;20100;-69
2021/11/17 07:43:35;;;;;;;7.18;2.53;;;;;;;6.86;100.00;101050.09;4999160;28;20029;-67
2021/11/17 07:46:00;;;;;;;5.60;2.28;;;;;;;6.82;100.00;101048.38;5005053;28;20400;-68
2021/11/17 07:48:27;;;;;;;6.28;1.92;;;;;;;6.85;100.00;101053.09;5010848;28;20042;-68
2021/11/17 07:50:55;;;;;;;8.30;3.15;;;;;;;6.95;100.00;101042.06;4997640;28;20034;-68
2021/11/17 07:53:23;;;;;;;6.25;2.10;;;;;;;6.93;100.00;101034.31;4988743;28;20501;-68
2021/11/17 07:55:51;;;;;;;8.57;2.42;;;;;;;6.97;100.00;101045.97;4967598;28;20551;-69
2021/11/17 07:58:20;;;;;;;8.35;2.63;;;;;;;6.92;100.00;101040.00;5005382;28;20109;-68
2021/11/17 08:00:49;;;;;;;8.32;2.25;;;;;;;6.97;100.00;101024.56;4993491;28;20033;-68
2021/11/17 08:03:17;;;;;;;18.52;2.83;;;;;;;7.05;100.00;101034.44;4997549;28;20104;-67
2021/11/17 08:05:46;;;;;;;14.95;3.53;;;;;;;7.05;100.00;101030.97;5009333;28;20102;-68
2021/11/17 08:08:13;;;;;;;9.45;2.70;;;;;;;6.99;100.00;101026.91;5000326;28;20057;-67
2021/11/17 08:10:39;;;;;;;11.65;2.95;;;;;;;7.01;100.00;101036.19;4993292;28;20109;-67
2021/11/17 08:13:05;;;;;;;9.95;2.67;;;;;;;6.98;100.00;101031.50;4999194;28;20088;-67
2021/11/17 08:15:31;;;;;;;5.95;2.20;;;;;;;6.97;100.00;101035.25;4980287;28;20169;-68
2021/11/17 08:17:56;;;;;;;8.25;2.08;;;;;;;6.94;100.00;101037.78;4979429;28;20073;-67
2021/11/17 08:20:22;;;;;;;9.52;2.80;;;;;;;7.02;100.00;101034.31;5000175;28;20041;-68
2021/11/17 08:22:51;;;;;;;8.25;2.83;;;;;;;6.99;100.00;101030.38;4990642;28;20030;-68
2021/11/17 08:25:38;;;;;;;10.27;2.63;;;;;;;6.94;100.00;101025.22;4995549;28;20512;-68
2021/11/17 08:28:07;;;;;;;8.95;2.58;;;;;;;7.02;100.00;101020.91;4949649;28;20050;-68
2021/11/17 08:30:34;;;;;;;7.15;2.53;;;;;;;7.01;100.00;101020.13;4953092;28;20088;-68
2021/11/17 08:33:01;;;;;;;10.02;2.60;;;;;;;7.07;100.00;101012.69;4954533;28;20186;-66
2021/11/17 08:35:28;;;;;;;6.55;2.38;;;;;;;7.12;100.00;101021.31;4937410;28;20027;-68
2021/11/17 08:37:54;;;;;;;5.53;2.10;;;;;;;6.98;100.00;101012.75;4958589;28;20050;-68
2021/11/17 08:40:23;;;;;;;12.63;3.65;;;;;;;7.14;100.00;101024.47;4962171;28;20073;-67
2021/11/17 08:42:48;;;;;;;9.70;3.38;;;;;;;7.11;100.00;101016.31;4948694;28;20047;-68
2021/11/17 08:45:16;;;;;;;7.93;2.28;;;;;;;7.05;100.00;101015.69;4967235;28;20150;-68
2021/11/17 08:47:42;;;;;;;9.82;3.22;;;;;;;7.15;100.00;101022.59;4968718;28;20045;-69
2021/11/17 08:50:12;;;;;;;7.93;2.60;;;;;;;7.22;100.00;101038.94;4952316;28;20049;-67
2021/11/17 08:52:38;;;;;;;13.25;3.10;;;;;;;7.17;100.00;101031.88;4961199;28;20166;-69
2021/11/17 08:55:05;;;;;;;7.38;2.28;;;;;;;7.20;100.00;101017.06;4968972;28;20042;-68
2021/11/17 08:57:31;;;;;;;5.95;2.42;;;;;;;7.18;100.00;101013.94;4968378;28;20058;-68
2021/11/17 08:59:57;;;;;;;9.65;3.08;;;;;;;7.20;100.00;101011.72;4956374;28;20525;-68
2021/11/17 09:02:22;;;;;;;6.85;2.65;;;;;;;7.29;100.00;101021.28;4957523;28;20041;-69
2021/11/17 09:04:48;;;;;;;10.07;2.80;;;;;;;7.26;100.00;101005.03;4975750;28;20064;-68
2021/11/17 09:07:14;;;;;;;8.55;3.05;;;;;;;7.34;100.00;101016.84;5009978;28;20030;-68
2021/11/17 09:09:40;;;;;;;9.40;2.45;;;;;;;7.39;100.00;101019.31;5001851;28;20417;-68
2021/11/17 09:12:12;;;;;;;8.70;2.50;;;;;;;7.35;100.00;101011.16;5000203;28;20034;-68
2021/11/17 09:14:38;;;;;;;11.13;2.75;;;;;;;7.40;100.00;101019.00;5002978;28;20065;-68
2021/11/17 09:17:04;;;;;;;8.57;3.30;;;;;;;7.39;100.00;101019.31;5005433;28;20036;-68
2021/11/17 09:19:30;;;;;;;7.13;2.30;;;;;;;7.42;100.00;101018.66;5007728;28;20084;-68
2021/11/17 09:21:55;;;;;;;6.03;2.55;;;;;;;7.38;100.00;101017.72;5008666;28;20053;-68
2021/11/17 09:24:22;;;;;;;7.65;2.88;;;;;;;7.42;100.00;101018.66;4996714;28;20411;-67
2021/11/17 09:26:50;;;;;;;7.47;2.83;;;;;;;7.36;100.00;101012.72;5005039;28;20088;-67
2021/11/17 09:29:17;;;;;;;12.80;2.22;;;;;;;7.39;100.00;101005.94;5008053;28;20480;-67
2021/11/17 09:31:45;;;;;;;8.48;3.17;;;;;;;7.44;100.00;101008.41;5006635;28;20117;-67
2021/11/17 09:34:12;;;;;;;9.05;2.97;;;;;;;7.52;100.00;101004.88;4999762;28;20531;-67
2021/11/17 09:36:39;;;;;;;13.20;2.50;;;;;;;7.56;100.00;101006.59;5006762;28;20065;-67
2021/11/17 09:39:07;;;;;;;11.40;3.10;;;;;;;7.53;100.00;101009.16;4997893;28;20493;-67
2021/11/17 09:41:34;;;;;;;6.78;2.53;;;;;;;7.54;100.00;101000.78;4999000;28;20057;-67
2021/11/17 09:44:25;;;;;;;7.60;2.95;;;;;;;7.51;100.00;100998.75;5004495;28;20030;-68
2021/11/17 09:46:52;;;;;;;11.57;3.08;;;;;;;7.59;100.00;100991.78;4996570;28;20120;-67
2021/11/17 09:49:39;;;;;;;14.02;2.95;;;;;;;7.54;100.00;100979.34;5002148;28;20596;-67
2021/11/17 09:52:10;;;;;;;7.93;2.70;;;;;;;7.59;100.00;100986.41;4997474;28;20038;-67
2021/11/17 09:54:39;;;;;;;;;;;;;;;7.59;100.00;100989.88;5005874;28;20388;-68
2021/11/17 09:57:09;;;;;;;7.20;2.72;;;;;;;7.65;100.00;100977.06;5007556;28;19917;-67
2021/11/17 09:59:43;;;;;;;13.00;3.80;;;;;;;7.62;100.00;100980.41;5000869;28;20030;-67
2021/11/17 10:02:37;;;;;;;7.20;2.55;;;;;;;7.57;100.00;100977.91;5001159;28;20054;-67
2021/11/17 10:05:12;;;;;;;10.48;3.38;;;;;;;7.65;100.00;100985.09;5005135;28;20118;-68
2021/11/17 10:14:00;;;;;;;11.57;2.85;;;;;;;7.58;100.00;100987.50;4967385;28;1168348;-69
2021/11/17 10:16:26;;;;;;;9.45;2.92;;;;;;;7.58;100.00;100980.28;5006849;28;20149;-68
2021/11/17 10:19:16;;;;;;;8.25;3.00;;;;;;;7.57;100.00;100983.28;5008147;28;20034;-68
2021/11/17 10:21:43;;;;;;;12.68;3.58;;;;;;;7.62;100.00;100973.16;5008479;28;20041;-68
2021/11/17 10:24:15;;;;;;;7.95;2.45;;;;;;;7.68;100.00;100979.09;4997604;28;20034;-67
2021/11/17 10:26:46;;;;;;;11.05;3.45;;;;;;;7.71;100.00;100983.78;5008006;28;20072;-67
2021/11/17 10:29:36;;;;;;;11.90;3.17;;;;;;;7.72;100.00;100982.69;5008967;28;20029;-69
2021/11/17 10:32:20;;;;;;;16.92;3.15;;;;;;;7.60;100.00;100971.91;4995134;28;20041;-68
2021/11/17 10:34:56;;;;;;;9.60;2.95;;;;;;;7.66;100.00;100975.94;5009169;28;20034;-68
2021/11/17 10:37:31;;;;;;;8.93;4.05;;;;;;;7.68;100.00;100973.72;5011439;28;20037;-68
2021/11/17 10:39:57;;;;;;;6.80;2.70;;;;;;;7.75;100.00;100977.47;5000951;28;20045;-67
2021/11/17 10:42:23;;;;;;;8.95;3.13;;;;;;;7.70;100.00;100971.50;5004669;28;20652;-67
2021/11/17 10:44:59;;;;;;;8.57;2.67;;;;;;;7.68;100.00;100976.41;5000038;28;20132;-67
2021/11/17 10:47:37;;;;;;;6.10;2.38;;;;;;;7.76;100.00;100972.88;4990963;28;20026;-67
2021/11/17 10:50:18;;;;;;;14.40;3.33;;;;;;;7.70;100.00;100963.47;4999560;28;20041;-67
2021/11/17 10:53:01;;;;;;;12.05;2.55;;;;;;;7.73;100.00;100965.47;5004748;28;20121;-67
2021/11/17 10:55:36;;;;;;;8.00;2.90;;;;;;;7.80;100.00;100960.41;4996534;28;20041;-67
2021/11/17 10:58:18;;;;;;;6.03;2.58;;;;;;;7.75;100.00;100964.06;5012891;28;20104;-67
2021/11/17 11:00:59;;;;;;;7.30;2.67;;;;;;;7.74;100.00;100959.03;5002167;28;20089;-67
2021/11/17 11:03:30;;;;;;;9.60;2.42;;;;;;;7.76;100.00;100960.25;5001726;28;20041;-68
2021/11/17 11:06:10;;;;;;;6.10;2.25;;;;;;;7.81;100.00;100956.59;5005815;28;20046;-68
2021/11/17 11:08:46;;;;;;;11.40;3.05;;;;;;;7.83;100.00;100955.16;5011022;28;20034;-68
2021/11/17 11:11:12;;;;;;;8.25;2.67;;;;;;;7.88;100.00;100954.16;5011526;28;20065;-68
2021/11/17 11:13:46;;;;;;;8.40;2.25;;;;;;;7.84;100.00;100966.69;5011587;28;20092;-67
2021/11/17 11:16:26;;;;;;;8.20;2.47;;;;;;;7.85;100.00;100973.59;4993454;28;20096;-68
2021/11/17 11:19:14;;;;;;;11.43;2.92;;;;;;;7.97;100.00;100974.44;5010199;28;20045;-68
2021/11/17 11:21:43;;;;;;;9.32;3.05;;;;;;;8.02;100.00;100970.75;5010668;28;20052;-68
2021/11/17 11:24:30;;;;;;;9.80;2.97;;;;;;;8.07;100.00;100970.56;5005301;28;20038;-67
2021/11/17 11:26:58;;;;;;;5.80;2.55;;;;;;;7.95;100.00;100973.19;5010504;28;20034;-68
2021/11/17 11:30:02;;;;;;;4.60;2.28;;;;;;;7.95;100.00;100970.50;5005997;28;20100;-68
2021/11/17 11:32:27;;;;;;;8.95;3.30;;;;;;;8.06;100.00;100972.47;4989648;28;20046;-68
2021/11/17 11:34:58;;;;;;;7.13;2.10;;;;;;;8.03;100.00;100965.06;5011722;28;20061;-67
2021/11/17 11:37:24;;;;;;;6.70;2.00;;;;;;;8.00;100.00;100967.63;5006216;28;20042;-68
2021/11/17 11:40:18;;;;;;;6.95;2.33;;;;;;;8.10;100.00;100976.06;5006034;28;20041;-67
2021/11/17 11:42:47;;;;;;;7.10;2.08;;;;;;;8.03;100.00;100972.34;4983511;28;20394;-68
2021/11/17 11:45:24;;;;;;;5.45;1.88;;;;;;;8.09;100.00;100969.09;4998673;28;20458;-68
2021/11/17 11:47:56;;;;;;;10.35;2.58;;;;;;;8.05;100.00;100972.78;5008976;28;20090;-68
2021/11/17 11:50:48;;;;;;;11.95;3.38;;;;;;;8.18;100.00;100971.72;5009381;28;20092;-68
2021/11/17 11:53:13;;;;;;;7.20;2.28;;;;;;;8.20;100.00;100951.50;4993893;28;20472;-67
2021/11/17 11:55:52;;;;;;;10.35;2.50;;;;;;;8.27;100.00;100958.22;5005718;28;20096;-68
2021/11/17 11:58:26;;;;;;;4.55;2.03;;;;;;;8.25;100.00;100955.88;5011276;28;20030;-67
2021/11/17 12:01:05;;;;;;;6.45;2.42;;;;;;;8.26;100.00;100949.44;5071264;23;20045;-66
2021/11/17 12:03:34;;;;;;;5.85;2.42;;;;;;;8.31;100.00;100946.53;5025900;28;20065;-66
2021/11/17 12:06:10;;;;;;;10.00;3.08;;;;;;;8.33;100.00;100952.34;5027258;28;20076;-66
2021/11/17 12:08:48;;;;;;;12.07;3.65;;;;;;;8.37;100.00;100936.34;5030205;28;20036;-67
2021/11/17 12:11:21;;;;;;;11.98;3.13;;;;;;;8.44;100.00;100947.34;5029635;28;20041;-67
2021/11/17 12:14:09;;;;;;;9.00;2.58;;;;;;;8.48;100.00;100934.84;5027894;28;20038;-67
2021/11/17 12:16:41;;;;;;;8.85;2.72;;;;;;;8.52;100.00;100928.44;5029633;28;20039;-67
2021/11/17 12:19:14;;;;;;;9.73;3.05;;;;;;;8.56;100.00;100929.34;5026524;28;20041;-67
2021/11/17 12:21:40;;;;;;;9.10;2.70;;;;;;;8.54;100.00;100926.22;5029010;28;20053;-67
2021/11/17 12:24:22;;;;;;;9.50;2.55;;;;;;;8.58;100.00;100924.44;5030867;28;20033;-67
2021/11/17 12:27:30;;;;;;;9.82;2.67;;;;;;;8.60;100.00;100921.41;5026591;28;20043;-67
2021/11/17 12:30:04;;;;;;;15.90;4.28;;;;;;;8.67;100.00;100919.72;5027344;28;20048;-67
2021/11/17 12:32:47;;;;;;;9.27;3.25;;;;;;;8.73;100.00;100902.28;5027127;28;20088;-66
2021/11/17 12:35:32;;;;;;;13.38;4.03;;;;;;;8.78;100.00;100896.72;5021514;28;20048;-67
2021/11/17 12:37:59;;;;;;;7.32;3.15;;;;;;;8.73;100.00;100912.25;5030779;28;20029;-66
2021/11/17 12:41:12;;;;;;;16.13;3.78;;;;;;;8.80;100.00;100907.91;5029316;28;20121;-67
2021/11/17 12:43:52;;;;;;;13.27;3.47;;;;;;;8.82;100.00;100902.97;4988572;28;20121;-66
2021/11/17 12:46:29;;;;;;;13.15;3.65;;;;;;;8.93;100.00;100905.97;5015544;28;20437;-67
2021/11/17 12:49:07;;;;;;;11.55;4.15;;;;;;;9.02;100.00;100910.09;5006655;28;20087;-66
2021/11/17 12:51:38;;;;;;;13.27;4.88;;;;;;;9.07;100.00;100912.56;5024305;28;20033;-67
2021/11/17 12:54:26;;;;;;;12.85;4.00;;;;;;;9.08;100.00;100918.72;5027420;28;20029;-66
2021/11/17 12:57:06;;;;;;;14.70;4.47;;;;;;;9.19;100.00;100910.97;5026718;28;20049;-66
2021/11/17 12:59:44;;;;;;;12.52;3.55;;;;;;;9.11;100.00;100918.06;5016563;28;20400;-67
2021/11/17 13:02:43;;;;;;;17.27;4.43;;;;;;;9.14;100.00;100919.28;5026495;28;20044;-66
2021/11/17 13:05:46;;;;;;;19.30;5.28;;;;;;;9.27;100.00;100926.97;5017606;28;20041;-66
2021/11/17 13:08:15;;;;;;;15.25;4.07;;;;;;;9.27;100.00;100926.19;5014828;28;20045;-66
2021/11/17 13:11:04;;;;;;;15.35;4.95;;;;;;;9.30;100.00;100926.28;5023771;28;20047;-67
2021/11/17 13:13:51;;;;;;;17.17;4.22;;;;;;;9.27;100.00;100931.56;5025840;28;20037;-67
2021/11/17 13:16:32;;;;;;;16.38;4.13;;;;;;;9.33;100.00;100935.59;5023061;28;20486;-67
2021/11/17 13:19:30;;;;;;;14.10;3.72;;;;;;;9.36;100.00;100951.81;5029067;28;20038;-67
2021/11/17 13:22:03;;;;;;;8.45;3.28;;;;;;;9.32;100.00;100950.13;5027583;28;20049;-67
2021/11/17 13:24:40;;;;;;;13.95;4.03;;;;;;;9.39;100.00;100956.50;5021208;28;20038;-67
2021/11/17 13:27:08;;;;;;;15.55;4.53;;;;;;;9.30;100.00;100953.16;5022588;28;20030;-66
2021/11/17 13:29:55;;;;;;;10.90;3.45;;;;;;;9.28;100.00;100949.25;5019395;28;20128;-66
2021/11/17 13:32:40;;;;;;;13.65;4.82;;;;;;;9.37;100.00;100949.94;5021994;28;20072;-65
2021/11/17 13:35:30;;;;;;;10.15;3.63;;;;;;;9.38;100.00;100954.16;5019308;28;20648;-66
2021/11/17 13:38:11;;;;;;;12.15;4.35;;;;;;;9.40;100.00;100949.22;5025266;28;20046;-66
2021/11/17 13:40:37;;;;;;;14.52;4.05;;;;;;;9.35;100.00;100944.09;5017386;28;20068;-67
2021/11/17 13:43:03;;;;;;;14.77;4.57;;;;;;;9.36;100.00;100943.75;5024115;28;20510;-66
2021/11/17 13:45:29;;;;;;;15.23;4.88;;;;;;;9.46;100.00;100942.50;5024692;28;20041;-66
2021/11/17 13:47:56;;;;;;;13.75;4.25;;;;;;;9.39;100.00;100945.00;5024480;28;20076;-66
2021/11/17 13:50:25;;;;;;;16.55;4.55;;;;;;;9.50;100.00;100946.88;5027568;28;20377;-67
2021/11/17 13:52:51;;;;;;;14.85;3.85;;;;;;;9.50;100.00;100946.09;5029655;28;20037;-66
2021/11/17 13:55:25;;;;;;;20.58;4.78;;;;;;;9.52;100.00;100959.97;5023718;28;20029;-66
2021/11/17 13:57:51;;;;;;;;;;;;;;;9.47;100.00;100952.91;5022083;28;20030;-67
2021/11/17 14:00:18;;;;;;;13.23;4.43;;;;;;;9.55;100.00;100960.06;5023403;28;20382;-66
2021/11/17 14:02:46;;;;;;;11.25;4.03;;;;;;;9.53;100.00;100966.91;5023222;28;20033;-66
2021/11/17 14:05:12;;;;;;;18.15;6.13;;;;;;;9.68;100.00;100963.50;5017953;28;20037;-66
2021/11/17 14:07:38;;;;;;;18.50;4.85;;;;;;;9.62;100.00;100962.19;5036138;28;20049;-65
2021/11/17 14:10:08;;;;;;;22.35;4.55;;;;;;;9.58;100.00;100967.44;5023829;28;20500;-66
2021/11/17 14:12:33;;;;;;;18.90;6.22;;;;;;;9.69;100.00;100973.13;5031170;28;20043;-66
2021/11/17 14:14:59;;;;;;;18.30;6.05;;;;;;;9.71;100.00;100977.06;5031514;28;20386;-65
2021/11/17 14:17:25;;;;;;;15.75;5.05;;;;;;;9.66;100.00;100982.66;5030023;28;20025;-66
2021/11/17 14:19:51;;;;;;;26.45;6.05;;;;;;;9.70;100.00;100977.38;5025564;28;20103;-66
2021/11/17 14:22:18;;;;;;;17.73;5.53;;;;;;;9.63;100.00;100987.94;5028849;28;20029;-65
2021/11/17 14:24:44;;;;;;;21.58;5.60;;;;;;;9.60;100.00;100977.88;5028869;28;20045;-66
2021/11/17 14:27:12;;;;;;;18.08;4.82;;;;;;;9.66;100.00;100979.19;5027424;28;20022;-65
2021/11/17 14:29:44;;;;;;;24.00;6.20;;;;;;;9.66;100.00;100982.66;5027469;28;20407;-66
2021/11/17 14:32:18;;;;;;;10.40;4.20;;;;;;;9.58;100.00;100988.94;5025723;28;20042;-66
2021/11/17 14:34:44;;;;;;;14.25;5.22;;;;;;;9.65;100.00;100985.69;5025964;28;20451;-65